Birmingham, AL

10:55 PM CDT on October 31, 2014 (GMT -0500)
Central Business District | Change Station
CLOSE
Current Station
Personal Weather Station
Location: Birmingham, AL
Elevation: 636 ft
Nearby Weather Stations

Elev 636 ft 33.52 °N, 86.81 °W | Updated 2 seconds ago

Partly Cloudy
Partly Cloudy
44.6 °F
Feels Like 42 °F
N
4.5
Wind Variable Wind from SSE
Gusts 9.8 mph

Today
High -- | Low -- °F
--% Chance of Precip.
Yesterday
High -- | Low -- °F
Precip. -- in
7:05 AM 5:56 PM
Waxing Gibbous, 62% visible
Pressure 30.17 in
Visibility 10.0 miles
Clouds Few 4500 ft
Windchill 42 °F
Dew Point 26 °F
Humidity 47%
Rainfall 0.00 in
Snow Depth Not available.
UV 0 out of 12
Pollen 1.90 out of 12
Air Quality Not available.
Flu Activity Not available.
METAR KBHM 010253Z 34020G25KT 10SM FEW045 06/M04 A3017 RMK AO2 PK WND 35034/0227 SLP217 T00561039 53038

More Conditions Fewer Conditions

Pressure 30.17 in
Visibility 10.0 miles
Clouds Few 4500 ft
Windchill 42 °F
Dew Point 26 °F
Humidity 47%
Rainfall 0.00 in
Snow Depth Not available.
UV 0 out of 12
Pollen 1.90 out of 12
Air Quality Not available.
Flu Activity Not available.
METAR KBHM 010253Z 34020G25KT 10SM FEW045 06/M04 A3017 RMK AO2 PK WND 35034/0227 SLP217 T00561039 53038

More Conditions Fewer Conditions

10-Day Weather Forecast

Almanac

Astronomy

Oct. 31, 2014 Rise Set
Actual Time
Civil Twilight
Nautical Twilight
Astronomical Twilight
Moon
Length of Visible Light
Length of Day
Tomorrow will be .
, % of the Moon is Illuminated

Today's Extremes

State Highs State Lows

Community

WunderPhotos

Upload Photos

1,766,847 photos uploaded!

WunderBlogs® & News

Nearby

Air Quality

  Air Quality AQ Index Pollutant
Not available.

Snow Depth

Station Depth Elevation

Earthquake Activity

City Distance Mag. Time & Date
Minimum magnitude displayed is 2.5.

Coastal Water Temperatures

Place Temperature

Nearby Weather Stations